createdAt,value
2022-08-05T00:00:50.187Z,19.48
2022-08-05T00:02:50.816Z,19.47
2022-08-05T00:04:55.572Z,19.43
2022-08-05T00:06:55.627Z,19.37
2022-08-05T00:08:54.017Z,19.32
2022-08-05T00:10:52.215Z,19.29
2022-08-05T00:12:56.791Z,19.33
2022-08-05T00:14:56.113Z,19.38
2022-08-05T00:16:54.438Z,19.36
2022-08-05T00:18:52.639Z,19.36
2022-08-05T00:20:51.918Z,19.30
2022-08-05T00:22:57.434Z,19.33
2022-08-05T00:25:00.514Z,19.33
2022-08-05T00:26:59.842Z,19.24
2022-08-05T00:28:58.841Z,19.18
2022-08-05T00:30:57.135Z,19.13
2022-08-05T00:33:02.700Z,19.09
2022-08-05T00:35:06.932Z,19.03
2022-08-05T00:37:12.461Z,19.09
2022-08-05T00:39:14.308Z,19.09
2022-08-05T00:41:12.823Z,19.01
2022-08-05T00:43:15.386Z,18.95
2022-08-05T00:45:13.719Z,18.95
2022-08-05T00:47:12.001Z,18.98
2022-08-05T00:49:10.494Z,18.98
2022-08-05T00:51:50.443Z,18.92
2022-08-05T00:54:00.032Z,18.91
2022-08-05T00:55:52.889Z,18.97
2022-08-05T00:57:58.549Z,19.01
2022-08-05T00:59:57.495Z,18.87
2022-08-05T01:01:55.788Z,18.64
2022-08-05T01:03:54.306Z,18.60
2022-08-05T01:05:54.482Z,18.59
2022-08-05T01:08:31.590Z,18.60
2022-08-05T01:10:14.983Z,18.66
2022-08-05T01:12:19.173Z,18.63
2022-08-05T01:14:27.781Z,18.45
2022-08-05T01:16:31.908Z,18.41
2022-08-05T01:18:35.416Z,18.43
2022-08-05T01:20:42.559Z,18.46
2022-08-05T01:22:57.512Z,18.40
2022-08-05T01:25:40.152Z,18.40
2022-08-05T01:28:12.163Z,18.31
2022-08-05T01:30:17.724Z,18.21
2022-08-05T01:32:21.983Z,18.12
2022-08-05T01:34:26.784Z,18.04
2022-08-05T01:36:30.790Z,18.06
2022-08-05T01:38:30.758Z,18.02
2022-08-05T01:40:32.163Z,17.98
2022-08-05T01:42:32.958Z,18.05
2022-08-05T01:44:35.264Z,18.01
2022-08-05T01:46:42.511Z,17.96
2022-08-05T01:48:49.722Z,18.02
2022-08-05T01:50:51.101Z,18.21
2022-08-05T01:52:51.611Z,18.27
2022-08-05T01:54:53.851Z,18.15
2022-08-05T01:58:12.357Z,18.07
2022-08-05T01:59:17.806Z,18.05
2022-08-05T02:01:25.333Z,18.02
2022-08-05T02:03:31.991Z,18.02
2022-08-05T02:05:34.382Z,17.97
2022-08-05T02:07:36.346Z,17.94
2022-08-05T02:09:34.776Z,17.91
2022-08-05T02:11:54.112Z,17.73
2022-08-05T02:14:01.676Z,17.66
2022-08-05T02:16:06.201Z,17.65
2022-08-05T02:18:27.979Z,17.64
2022-08-05T02:20:31.832Z,17.56
2022-08-05T02:22:43.239Z,17.50
2022-08-05T02:24:48.146Z,17.37
2022-08-05T02:26:54.717Z,17.44
2022-08-05T02:28:56.211Z,17.46
2022-08-05T02:31:01.685Z,17.44
2022-08-05T02:33:01.474Z,17.46
2022-08-05T02:35:13.674Z,17.46
2022-08-05T02:37:14.261Z,17.43
2022-08-05T02:39:18.447Z,17.41
2022-08-05T02:41:22.999Z,17.43
2022-08-05T02:43:23.093Z,17.29
2022-08-05T02:45:23.852Z,17.25
2022-08-05T02:47:23.995Z,17.23
2022-08-05T02:49:23.275Z,17.22
2022-08-05T02:51:28.244Z,17.19
2022-08-05T02:53:43.557Z,17.15
2022-08-05T02:55:54.065Z,17.16
2022-08-05T02:58:19.637Z,17.21
2022-08-05T03:00:13.895Z,17.29
2022-08-05T03:02:13.724Z,17.27
2022-08-05T03:04:15.728Z,17.26
2022-08-05T03:06:54.726Z,17.26
2022-08-05T03:08:35.911Z,17.37
2022-08-05T03:10:34.140Z,17.41
2022-08-05T03:12:33.178Z,17.44
2022-08-05T03:14:31.558Z,17.46
2022-08-05T03:16:29.825Z,17.44
2022-08-05T03:18:30.749Z,17.39
2022-08-05T03:20:29.078Z,17.35
2022-08-05T03:22:32.122Z,17.40
2022-08-05T03:24:32.488Z,17.32
2022-08-05T03:26:32.776Z,17.28
2022-08-05T03:28:31.535Z,17.25
2022-08-05T03:30:34.197Z,17.38
2022-08-05T03:32:33.028Z,17.39
2022-08-05T03:34:31.963Z,17.35
2022-08-05T03:36:30.814Z,17.25
2022-08-05T03:38:33.334Z,17.21
2022-08-05T03:40:41.398Z,17.12
2022-08-05T03:42:52.482Z,17.01
2022-08-05T03:44:51.108Z,17.01
2022-08-05T03:46:50.142Z,17.01
2022-08-05T03:48:48.420Z,17.01
2022-08-05T03:50:52.204Z,17.21
2022-08-05T03:55:53.358Z,17.51
2022-08-05T03:56:04.607Z,18.25
2022-08-05T03:57:46.556Z,18.98
2022-08-05T03:59:54.791Z,19.36
2022-08-05T04:01:58.625Z,19.88
2022-08-05T04:04:09.835Z,20.03
2022-08-05T04:06:09.721Z,20.61
2022-08-05T04:08:14.346Z,20.61
2022-08-05T04:10:33.292Z,20.64
2022-08-05T04:14:35.813Z,21.33
2022-08-05T04:16:35.718Z,21.28
2022-08-05T04:18:34.665Z,21.42
2022-08-05T04:20:32.973Z,21.74
2022-08-05T04:22:31.919Z,22.45
2022-08-05T04:24:30.178Z,22.10
2022-08-05T04:26:32.455Z,22.25
2022-08-05T04:28:31.830Z,22.35
2022-08-05T04:30:31.594Z,22.42
2022-08-05T04:32:31.179Z,21.99
2022-08-05T04:34:35.139Z,22.28
2022-08-05T04:36:46.006Z,22.59
2022-08-05T04:38:51.026Z,22.11
2022-08-05T04:40:50.625Z,22.26
2022-08-05T04:42:49.389Z,22.36
2022-08-05T04:44:47.665Z,21.93
2022-08-05T04:46:47.436Z,22.16
2022-08-05T04:48:47.027Z,22.24
2022-08-05T04:51:01.615Z,22.51
2022-08-05T04:53:01.441Z,22.46
2022-08-05T04:54:59.664Z,22.65
2022-08-05T04:57:12.413Z,22.77
2022-08-05T04:59:21.466Z,22.87
2022-08-05T05:02:06.263Z,22.97
2022-08-05T05:03:48.556Z,23.24
2022-08-05T05:06:39.617Z,23.32
2022-08-05T05:08:14.415Z,22.75
2022-08-05T05:10:25.939Z,22.94
2022-08-05T05:12:27.921Z,23.43
2022-08-05T05:14:28.204Z,23.11
2022-08-05T05:16:30.570Z,22.60
2022-08-05T05:18:33.341Z,22.94
2022-08-05T05:20:37.171Z,22.74
2022-08-05T05:22:40.805Z,22.80
2022-08-05T05:24:58.564Z,22.89
2022-08-05T05:26:57.972Z,22.82
2022-08-05T05:28:57.664Z,22.95
2022-08-05T05:30:55.938Z,23.19
2022-08-05T05:32:55.104Z,23.16
2022-08-05T05:34:53.424Z,23.14
2022-08-05T05:36:53.513Z,23.02
2022-08-05T05:38:51.900Z,22.84
2022-08-05T05:40:51.561Z,23.12
2022-08-05T05:42:50.974Z,23.22
2022-08-05T05:44:50.071Z,23.26
2022-08-05T05:46:48.313Z,23.50
2022-08-05T05:48:49.347Z,23.39
2022-08-05T05:50:47.749Z,23.55
2022-08-05T05:52:48.623Z,23.85
2022-08-05T05:54:50.162Z,23.86
2022-08-05T05:56:49.473Z,24.05
2022-08-05T05:58:48.994Z,24.36
2022-08-05T06:00:48.730Z,24.48
2022-08-05T06:02:48.698Z,24.78
2022-08-05T06:04:49.323Z,24.94
2022-08-05T06:06:49.146Z,25.28
2022-08-05T06:08:49.352Z,24.79
2022-08-05T06:10:49.239Z,24.89
2022-08-05T06:13:15.850Z,24.91
2022-08-05T06:15:24.036Z,24.73
2022-08-05T06:17:24.613Z,24.83
2022-08-05T06:19:34.215Z,25.10
2022-08-05T06:21:36.602Z,25.02
2022-08-05T06:23:44.120Z,24.84
2022-08-05T06:26:12.621Z,24.83
2022-08-05T06:28:10.500Z,24.99
2022-08-05T06:30:19.910Z,25.02
2022-08-05T06:32:25.674Z,24.77
2022-08-05T06:34:27.743Z,25.09
2022-08-05T06:36:26.183Z,25.24
2022-08-05T06:38:36.603Z,25.00
2022-08-05T06:40:35.327Z,25.34
2022-08-05T06:42:42.187Z,25.30
2022-08-05T06:44:40.607Z,25.35
2022-08-05T06:46:40.508Z,25.75
2022-08-05T06:48:55.998Z,25.40
2022-08-05T06:50:54.979Z,25.64
2022-08-05T06:53:03.536Z,25.84
2022-08-05T06:55:10.415Z,26.06
2022-08-05T06:57:56.856Z,26.04
2022-08-05T06:59:28.810Z,25.57
2022-08-05T07:01:40.466Z,24.85
2022-08-05T07:03:39.090Z,25.03
2022-08-05T07:05:41.119Z,25.67
2022-08-05T07:07:43.280Z,26.16
2022-08-05T07:09:43.265Z,26.72
2022-08-05T07:11:41.785Z,26.04
2022-08-05T07:13:59.992Z,26.63
2022-08-05T07:18:00.539Z,26.76
2022-08-05T07:18:32.263Z,27.11
2022-08-05T07:20:33.393Z,26.99
2022-08-05T07:22:32.460Z,26.76
2022-08-05T07:24:30.627Z,27.09
2022-08-05T07:26:29.958Z,27.30
2022-08-05T07:28:29.441Z,27.48
2022-08-05T07:30:32.281Z,26.91
2022-08-05T07:32:36.531Z,27.18
2022-08-05T07:34:37.213Z,27.50
2022-08-05T07:36:40.707Z,27.68
2022-08-05T07:38:42.626Z,28.14
2022-08-05T07:40:44.500Z,28.22
2022-08-05T07:42:44.062Z,27.47
2022-08-05T07:44:42.844Z,28.30
2022-08-05T07:46:48.246Z,28.97
2022-08-05T07:49:02.628Z,29.00
2022-08-05T07:51:03.003Z,29.77
2022-08-05T07:53:07.094Z,30.33
2022-08-05T07:55:43.866Z,29.73
2022-08-05T07:57:58.924Z,30.18
2022-08-05T07:59:43.233Z,29.80
2022-08-05T08:01:52.112Z,29.65
2022-08-05T08:03:57.229Z,29.79
2022-08-05T08:05:55.918Z,29.92
2022-08-05T08:08:00.295Z,29.53
2022-08-05T08:09:58.883Z,29.77
2022-08-05T08:12:00.095Z,30.17
2022-08-05T08:14:05.133Z,30.13
2022-08-05T08:16:34.834Z,30.25
2022-08-05T08:18:23.124Z,30.95
2022-08-05T08:21:00.186Z,31.31
2022-08-05T08:22:41.960Z,31.96
2022-08-05T08:24:51.471Z,32.38
2022-08-05T08:26:50.979Z,32.30
2022-08-05T08:28:59.563Z,32.58
2022-08-05T08:31:04.406Z,32.66
2022-08-05T08:33:08.490Z,33.45
2022-08-05T08:35:13.615Z,33.60
2022-08-05T08:37:13.345Z,34.06
2022-08-05T08:39:18.321Z,33.96
2022-08-05T08:41:18.453Z,34.27
2022-08-05T08:44:56.503Z,34.51
2022-08-05T08:45:39.264Z,34.58
2022-08-05T08:48:05.811Z,34.67
2022-08-05T08:50:22.566Z,35.10
2022-08-05T08:52:25.587Z,34.75
2022-08-05T08:54:27.193Z,35.42
2022-08-05T08:56:27.205Z,35.07
2022-08-05T08:58:37.204Z,35.20
2022-08-05T09:00:44.394Z,36.23
2022-08-05T09:02:43.501Z,37.02
2022-08-05T09:04:58.312Z,37.07
2022-08-05T09:07:19.360Z,38.10
2022-08-05T09:09:34.855Z,38.15
2022-08-05T09:11:50.872Z,37.82
2022-08-05T09:14:09.214Z,38.41
2022-08-05T09:16:16.756Z,39.90
2022-08-05T09:18:15.745Z,38.14
2022-08-05T09:20:36.644Z,36.87
2022-08-05T09:23:09.372Z,38.25
2022-08-05T09:25:13.876Z,39.10
2022-08-05T09:28:05.788Z,39.10
2022-08-05T09:29:52.504Z,39.68
2022-08-05T09:32:42.125Z,38.55
2022-08-05T09:34:21.631Z,39.75
2022-08-05T09:36:27.810Z,39.76
2022-08-05T09:38:32.081Z,39.23
2022-08-05T09:40:33.216Z,39.44
2022-08-05T09:42:41.438Z,39.28
2022-08-05T09:44:42.052Z,39.91
2022-08-05T09:46:50.117Z,40.03
2022-08-05T09:48:55.467Z,40.09
2022-08-05T09:51:15.219Z,40.59
2022-08-05T09:53:22.959Z,40.21
2022-08-05T09:55:56.774Z,41.05
2022-08-05T09:57:47.691Z,39.41
2022-08-05T09:59:49.240Z,38.75
2022-08-05T10:01:48.151Z,37.72
2022-08-05T10:04:00.212Z,39.11
2022-08-05T10:06:07.625Z,39.74
2022-08-05T10:08:35.741Z,39.21
2022-08-05T10:10:37.571Z,38.51
2022-08-05T10:12:49.872Z,38.39
2022-08-05T10:14:54.364Z,37.23
2022-08-05T10:16:56.311Z,37.59
2022-08-05T10:18:55.642Z,37.44
2022-08-05T10:20:57.862Z,38.85
2022-08-05T10:23:00.480Z,38.96
2022-08-05T10:24:59.126Z,38.18
2022-08-05T10:27:01.225Z,37.62
2022-08-05T10:28:59.722Z,37.90
2022-08-05T10:32:50.604Z,38.15
2022-08-05T10:33:19.548Z,37.55
2022-08-05T10:35:18.756Z,37.52
2022-08-05T10:37:17.779Z,38.22
2022-08-05T10:39:24.948Z,37.60
2022-08-05T10:41:44.824Z,36.91
2022-08-05T10:43:52.132Z,37.16
2022-08-05T10:46:06.792Z,37.26
2022-08-05T10:48:39.521Z,37.95
2022-08-05T10:51:00.569Z,38.19
2022-08-05T10:52:59.938Z,36.77
2022-08-05T10:55:05.754Z,37.76
2022-08-05T10:57:04.298Z,36.04
2022-08-05T10:59:12.085Z,35.83
2022-08-05T11:01:55.644Z,35.96
2022-08-05T11:04:08.882Z,33.76
2022-08-05T11:06:15.108Z,33.40
2022-08-05T11:08:36.874Z,33.19
2022-08-05T11:10:34.986Z,32.57
2022-08-05T11:12:50.365Z,32.61
2022-08-05T11:15:19.489Z,32.34
2022-08-05T11:17:58.675Z,31.93
2022-08-05T11:20:17.659Z,31.95
2022-08-05T11:22:42.993Z,32.21
2022-08-05T11:24:50.564Z,32.43
2022-08-05T11:27:51.421Z,32.58
2022-08-05T11:30:01.205Z,32.15
2022-08-05T11:32:26.503Z,32.09
2022-08-05T11:34:38.352Z,31.90
2022-08-05T11:36:53.758Z,31.74
2022-08-05T11:38:54.676Z,31.86
2022-08-05T11:41:13.865Z,31.82
2022-08-05T11:44:06.534Z,31.92
2022-08-05T11:46:15.212Z,31.33
2022-08-05T11:48:11.613Z,31.28
2022-08-05T11:50:10.467Z,31.03
2022-08-05T11:52:14.743Z,31.01
2022-08-05T11:54:15.787Z,30.83
2022-08-05T11:56:14.844Z,30.70
2022-08-05T11:58:13.464Z,30.75
2022-08-05T12:00:28.921Z,30.61
2022-08-05T12:02:32.937Z,30.58
2022-08-05T12:04:40.409Z,30.70
2022-08-05T12:06:48.774Z,30.95
2022-08-05T12:08:51.742Z,31.39
2022-08-05T12:10:52.586Z,31.76
2022-08-05T12:12:58.334Z,31.71
2022-08-05T12:14:58.462Z,31.89
2022-08-05T12:16:57.384Z,32.29
2022-08-05T12:18:57.456Z,32.31
2022-08-05T12:20:56.236Z,32.69
2022-08-05T12:23:10.053Z,32.90
2022-08-05T12:25:14.320Z,32.93
2022-08-05T12:27:32.468Z,32.89
2022-08-05T12:29:38.871Z,33.12
2022-08-05T12:31:45.970Z,32.89
2022-08-05T12:33:49.152Z,32.41
2022-08-05T12:35:48.498Z,32.08
2022-08-05T12:37:48.471Z,31.79
2022-08-05T12:39:53.797Z,31.56
2022-08-05T12:41:59.862Z,31.16
2022-08-05T12:44:02.126Z,30.90
2022-08-05T12:46:01.222Z,30.86
2022-08-05T12:48:17.223Z,30.95
2022-08-05T12:50:19.775Z,30.92
2022-08-05T12:52:23.950Z,30.70
2022-08-05T12:54:28.190Z,30.69
2022-08-05T12:56:35.189Z,30.71
2022-08-05T12:58:48.313Z,30.91
2022-08-05T13:02:01.084Z,30.89
2022-08-05T13:03:13.642Z,31.03
2022-08-05T13:05:14.552Z,30.99
2022-08-05T13:07:15.919Z,30.78
2022-08-05T13:09:28.606Z,30.99
2022-08-05T13:12:03.286Z,31.21
2022-08-05T13:14:06.216Z,31.17
2022-08-05T13:16:15.317Z,31.05
2022-08-05T13:18:19.875Z,31.20
2022-08-05T13:20:23.436Z,31.29
2022-08-05T13:22:28.547Z,31.24
2022-08-05T13:24:51.103Z,31.29
2022-08-05T13:26:50.644Z,31.28
2022-08-05T13:28:49.138Z,31.09
2022-08-05T13:30:57.222Z,31.05
2022-08-05T13:32:56.427Z,31.12
2022-08-05T13:34:55.266Z,31.19
2022-08-05T13:36:53.938Z,31.06
2022-08-05T13:38:52.394Z,31.07
2022-08-05T13:40:52.124Z,31.24
2022-08-05T13:42:50.763Z,31.36
2022-08-05T13:44:54.322Z,31.30
2022-08-05T13:47:02.568Z,31.24
2022-08-05T13:49:10.161Z,31.27
2022-08-05T13:51:11.404Z,31.31
2022-08-05T13:53:15.804Z,31.27
2022-08-05T13:55:41.178Z,31.29
2022-08-05T13:57:51.031Z,31.35
2022-08-05T13:59:57.578Z,31.34
2022-08-05T14:02:10.586Z,31.32
2022-08-05T14:04:36.255Z,31.38
2022-08-05T14:06:34.974Z,31.17
2022-08-05T14:08:35.526Z,31.00
2022-08-05T14:10:35.498Z,30.96
2022-08-05T14:12:35.874Z,30.90
2022-08-05T14:14:34.140Z,30.95
2022-08-05T14:16:32.423Z,30.98
2022-08-05T14:18:32.216Z,30.98
2022-08-05T14:20:30.797Z,31.04
2022-08-05T14:22:30.482Z,30.87
2022-08-05T14:24:32.806Z,30.88
2022-08-05T14:26:36.892Z,30.68
2022-08-05T14:28:52.174Z,30.76
2022-08-05T14:30:50.783Z,30.77
2022-08-05T14:32:52.343Z,30.70
2022-08-05T14:34:52.216Z,30.67
2022-08-05T14:36:50.485Z,30.71
2022-08-05T14:38:49.338Z,30.74
2022-08-05T14:40:48.256Z,30.74
2022-08-05T14:42:46.492Z,30.77
2022-08-05T14:44:47.338Z,30.72
2022-08-05T14:46:45.801Z,30.72
2022-08-05T14:48:44.760Z,30.62
2022-08-05T14:50:49.898Z,30.65
2022-08-05T14:52:57.663Z,30.57
2022-08-05T14:54:57.317Z,30.49
2022-08-05T14:57:00.515Z,30.55
2022-08-05T14:59:04.151Z,30.48
2022-08-05T15:01:05.047Z,30.38
2022-08-05T15:03:15.118Z,30.27
2022-08-05T15:05:14.753Z,30.20
2022-08-05T15:08:09.026Z,30.14
2022-08-05T15:09:52.876Z,30.02
2022-08-05T15:11:55.319Z,29.99
2022-08-05T15:13:54.335Z,29.93
2022-08-05T15:15:55.723Z,29.89
2022-08-05T15:17:58.123Z,29.83
2022-08-05T15:20:02.722Z,29.81
2022-08-05T15:22:02.108Z,29.74
2022-08-05T15:24:01.981Z,29.75
2022-08-05T15:26:03.005Z,29.76
2022-08-05T15:28:01.941Z,29.72
2022-08-05T15:30:00.175Z,29.70
2022-08-05T15:32:03.153Z,29.70
2022-08-05T15:34:18.790Z,29.68
2022-08-05T15:36:24.446Z,29.74
2022-08-05T15:38:34.306Z,29.71
2022-08-05T15:41:02.880Z,29.63
2022-08-05T15:43:00.479Z,29.64
2022-08-05T15:45:11.442Z,29.63
2022-08-05T15:47:09.795Z,29.61
2022-08-05T15:49:10.301Z,29.51
2022-08-05T15:51:09.814Z,29.50
2022-08-05T15:53:09.766Z,29.48
2022-08-05T15:55:16.129Z,29.46
2022-08-05T15:57:16.195Z,29.56
2022-08-05T15:59:19.872Z,29.55
2022-08-05T16:01:20.032Z,29.55
2022-08-05T16:03:18.518Z,29.45
2022-08-05T16:05:16.877Z,29.42
2022-08-05T16:07:18.943Z,29.36
2022-08-05T16:09:22.187Z,29.25
2022-08-05T16:11:20.799Z,29.26
2022-08-05T16:13:39.550Z,29.18
2022-08-05T16:15:37.695Z,29.19
2022-08-05T16:17:40.276Z,29.14
2022-08-05T16:20:03.640Z,29.16
2022-08-05T16:22:00.382Z,29.14
2022-08-05T16:24:03.483Z,29.13
2022-08-05T16:26:07.523Z,29.13
2022-08-05T16:28:09.448Z,29.06
2022-08-05T16:30:25.814Z,29.04
2022-08-05T16:32:29.191Z,29.00
2022-08-05T16:34:28.881Z,29.00
2022-08-05T16:36:28.334Z,28.96
2022-08-05T16:38:28.072Z,28.95
2022-08-05T16:40:29.078Z,28.96
2022-08-05T16:42:28.597Z,28.94
2022-08-05T16:44:27.532Z,28.90
2022-08-05T16:46:27.616Z,28.82
2022-08-05T16:48:33.441Z,28.83
2022-08-05T16:50:33.806Z,28.77
2022-08-05T16:52:32.715Z,28.70
2022-08-05T16:54:33.182Z,28.65
2022-08-05T16:56:33.978Z,28.62
2022-08-05T16:58:32.224Z,28.58
2022-08-05T17:00:35.128Z,28.57
2022-08-05T17:02:37.899Z,28.50
2022-08-05T17:04:36.199Z,28.41
2022-08-05T17:06:38.727Z,28.35
2022-08-05T17:08:53.165Z,28.33
2022-08-05T17:10:52.343Z,28.30
2022-08-05T17:12:52.312Z,28.21
2022-08-05T17:14:51.036Z,28.18
2022-08-05T17:16:49.926Z,28.16
2022-08-05T17:18:53.677Z,28.15
2022-08-05T17:20:52.796Z,28.11
2022-08-05T17:22:55.328Z,28.08
2022-08-05T17:24:57.449Z,27.99
2022-08-05T17:26:56.569Z,27.92
2022-08-05T17:28:54.910Z,27.85
2022-08-05T17:30:53.398Z,27.82
2022-08-05T17:32:52.622Z,27.73
2022-08-05T17:34:52.453Z,27.65
2022-08-05T17:36:51.151Z,27.58
2022-08-05T17:38:49.582Z,27.61
2022-08-05T17:40:47.968Z,27.54
2022-08-05T17:42:50.951Z,27.49
2022-08-05T17:44:51.627Z,27.50
2022-08-05T17:46:50.043Z,27.48
2022-08-05T17:48:49.131Z,27.41
2022-08-05T17:50:48.911Z,27.34
2022-08-05T17:52:53.005Z,27.22
2022-08-05T17:54:53.561Z,27.09
2022-08-05T17:56:52.169Z,27.07
2022-08-05T17:58:51.187Z,27.01
2022-08-05T18:00:51.130Z,26.98
2022-08-05T18:02:49.781Z,26.91
2022-08-05T18:04:53.226Z,26.87
2022-08-05T18:06:53.514Z,26.84
2022-08-05T18:08:58.843Z,26.86
2022-08-05T18:10:57.197Z,26.85
2022-08-05T18:12:55.678Z,26.81
2022-08-05T18:14:55.595Z,26.79
2022-08-05T18:16:53.952Z,26.81
2022-08-05T18:18:53.735Z,26.83
2022-08-05T18:20:51.998Z,26.79
2022-08-05T18:22:57.354Z,26.75
2022-08-05T18:24:56.603Z,26.74
2022-08-05T18:26:54.990Z,26.71
2022-08-05T18:28:53.626Z,26.71
2022-08-05T18:30:52.580Z,26.67
2022-08-05T18:32:53.468Z,26.66
2022-08-05T18:34:58.450Z,26.70
2022-08-05T18:36:57.334Z,26.71
2022-08-05T18:38:57.107Z,26.64
2022-08-05T18:41:56.228Z,26.58
2022-08-05T18:43:16.419Z,26.50
2022-08-05T18:45:15.469Z,26.48
2022-08-05T18:47:14.455Z,26.48
2022-08-05T18:49:30.436Z,26.38
2022-08-05T18:52:05.400Z,26.37
2022-08-05T18:54:08.864Z,26.31
2022-08-05T18:56:07.945Z,26.19
2022-08-05T18:58:16.515Z,26.08
2022-08-05T19:00:21.044Z,25.97
2022-08-05T19:02:28.515Z,25.87
2022-08-05T19:04:30.624Z,25.76
2022-08-05T19:06:37.118Z,25.57
2022-08-05T19:08:43.215Z,25.48
2022-08-05T19:10:42.910Z,25.41
2022-08-05T19:12:41.585Z,25.35
2022-08-05T19:15:00.782Z,25.24
2022-08-05T19:17:01.261Z,25.27
2022-08-05T19:19:03.444Z,25.19
2022-08-05T19:21:03.502Z,25.08
2022-08-05T19:23:07.762Z,24.93
2022-08-05T19:25:07.726Z,24.86
2022-08-05T19:27:09.086Z,24.72
2022-08-05T19:29:18.975Z,24.68
2022-08-05T19:31:19.415Z,24.64
2022-08-05T19:33:35.872Z,24.53
2022-08-05T19:35:56.060Z,24.51
2022-08-05T19:38:06.783Z,24.60
2022-08-05T19:40:10.357Z,24.56
2022-08-05T19:42:10.530Z,24.45
2022-08-05T19:44:14.221Z,24.42
2022-08-05T19:46:16.771Z,24.40
2022-08-05T19:48:28.271Z,24.46
2022-08-05T19:50:26.881Z,24.37
2022-08-05T19:52:31.551Z,24.34
2022-08-05T19:54:31.950Z,24.27
2022-08-05T19:56:34.514Z,24.20
2022-08-05T19:58:53.460Z,24.05
2022-08-05T20:00:52.791Z,23.95
2022-08-05T20:02:51.194Z,23.91
2022-08-05T20:04:50.299Z,23.89
2022-08-05T20:06:49.009Z,23.84
2022-08-05T20:08:48.888Z,23.77
2022-08-05T20:10:50.169Z,23.76
2022-08-05T20:12:49.494Z,23.85
2022-08-05T20:14:52.265Z,23.93
2022-08-05T20:16:50.877Z,23.91
2022-08-05T20:18:51.432Z,23.84
2022-08-05T20:20:55.332Z,23.80
2022-08-05T20:22:54.838Z,23.71
2022-08-05T20:24:57.096Z,23.63
2022-08-05T20:26:55.531Z,23.54
2022-08-05T20:28:57.474Z,23.43
2022-08-05T20:31:00.676Z,23.37
2022-08-05T20:33:00.520Z,23.30
2022-08-05T20:34:59.114Z,23.27
2022-08-05T20:36:57.488Z,23.26
2022-08-05T20:38:57.774Z,23.23
2022-08-05T20:40:56.511Z,23.34
2022-08-05T20:42:55.659Z,23.30
2022-08-05T20:44:58.245Z,23.20
2022-08-05T20:47:01.720Z,23.07
2022-08-05T20:49:02.450Z,23.06
2022-08-05T20:51:08.298Z,23.10
2022-08-05T20:53:06.919Z,23.12
2022-08-05T20:57:43.941Z,22.97
2022-08-05T21:00:10.549Z,22.96
2022-08-05T21:02:04.038Z,22.95
2022-08-05T21:04:02.399Z,22.86
2022-08-05T21:06:02.738Z,22.75
2022-08-05T21:08:01.200Z,22.79
2022-08-05T21:09:59.565Z,22.83
2022-08-05T21:12:09.678Z,22.79
2022-08-05T21:14:10.259Z,22.66
2022-08-05T21:16:10.705Z,22.59
2022-08-05T21:18:10.328Z,22.63
2022-08-05T21:20:11.381Z,22.60
2022-08-05T21:22:11.945Z,22.54
2022-08-05T21:24:13.475Z,22.51
2022-08-05T21:26:15.230Z,22.59
2022-08-05T21:28:13.590Z,22.61
2022-08-05T21:30:19.219Z,22.71
2022-08-05T21:32:22.244Z,22.78
2022-08-05T21:34:26.653Z,22.87
2022-08-05T21:36:30.137Z,22.93
2022-08-05T21:38:31.182Z,22.85
2022-08-05T21:40:29.709Z,22.80
2022-08-05T21:42:30.904Z,22.68
2022-08-05T21:44:42.033Z,22.68
2022-08-05T21:46:41.635Z,22.51
2022-08-05T21:48:41.399Z,22.47
2022-08-05T21:50:53.201Z,22.28
2022-08-05T21:52:52.789Z,22.22
2022-08-05T21:54:51.314Z,22.12
2022-08-05T21:57:09.550Z,22.06
2022-08-05T21:59:24.120Z,22.03
2022-08-05T22:01:25.673Z,22.01
2022-08-05T22:03:48.998Z,21.99
2022-08-05T22:05:48.869Z,21.91
2022-08-05T22:07:59.505Z,21.90
2022-08-05T22:10:00.929Z,21.79
2022-08-05T22:11:59.421Z,21.81
2022-08-05T22:14:06.649Z,21.83
2022-08-05T22:16:39.405Z,21.79
2022-08-05T22:18:36.245Z,21.76
2022-08-05T22:20:38.925Z,21.79
2022-08-05T22:22:53.031Z,21.77
2022-08-05T22:25:18.159Z,21.78
2022-08-05T22:28:09.385Z,21.82
2022-08-05T22:30:12.162Z,21.65
2022-08-05T22:32:11.862Z,21.67
2022-08-05T22:34:25.584Z,21.62
2022-08-05T22:36:27.166Z,21.59
2022-08-05T22:38:26.907Z,21.51
2022-08-05T22:40:25.289Z,21.45
2022-08-05T22:42:26.042Z,21.43
2022-08-05T22:44:24.782Z,21.39
2022-08-05T22:46:25.883Z,21.51
2022-08-05T22:48:27.254Z,21.50
2022-08-05T22:50:27.694Z,21.38
2022-08-05T22:52:32.543Z,21.49
2022-08-05T22:54:34.178Z,21.59
2022-08-05T22:56:32.766Z,21.68
2022-08-05T22:58:31.531Z,21.53
2022-08-05T23:00:31.368Z,21.36
2022-08-05T23:02:30.226Z,21.28
2022-08-05T23:04:28.892Z,21.20
2022-08-05T23:06:27.229Z,21.05
2022-08-05T23:08:27.288Z,21.01
2022-08-05T23:10:27.821Z,21.00
2022-08-05T23:12:28.555Z,21.12
2022-08-05T23:14:31.870Z,21.16
2022-08-05T23:16:48.515Z,21.12
2022-08-05T23:18:50.572Z,20.98
2022-08-05T23:20:49.793Z,21.06
2022-08-05T23:22:48.609Z,21.03
2022-08-05T23:24:51.072Z,20.99
2022-08-05T23:26:51.076Z,20.98
2022-08-05T23:28:49.553Z,20.92
2022-08-05T23:30:53.470Z,20.87
2022-08-05T23:32:52.966Z,20.81
2022-08-05T23:34:51.538Z,20.78
2022-08-05T23:36:49.906Z,20.76
2022-08-05T23:38:51.261Z,20.70
2022-08-05T23:40:50.799Z,20.69
2022-08-05T23:42:53.693Z,20.63
2022-08-05T23:44:54.254Z,20.66
2022-08-05T23:46:53.108Z,20.67
2022-08-05T23:49:00.440Z,20.69
2022-08-05T23:51:00.298Z,20.68
2022-08-05T23:53:01.165Z,20.64
2022-08-05T23:55:08.862Z,20.59
2022-08-05T23:57:08.767Z,20.54
2022-08-05T23:59:08.425Z,20.45
